»·PEaware :: ASA1221 KSAN-KSBA

ASA1221 :: KSAN-KSBA

FLIGHT INFORMATION

Flight Status: Arrived
Operator:
Alaska Airlines
More flights by this operator :: More flights under this callsign
Pilot: Manny R. (10936)
Aircraft: AIRBUS A320
(A320)
More flights by this aircraft type
Origin: KSAN San Diego Intl-Lindbergh
United States
Destination: KSBA Santa Barbara Mun
United States
More flights between these airports :: More routes between these airports
Route: +CWARD2 AVOLS V208 VTU VTU282 KWANG
File this flight plan on PilotEdge
Remarks: SANN36R
Altitude:
(Current/Filed)
10,000ft
Speed:
(Current/Filed)
345kts
Departed: 01-May-18 07:47 PM
Arrived: 01-May-18 08:30 PM
Distance/Time
Traveled:
167nm/0:43
Distance/Time
To Go:
Arrived

Flight Plot

Page will automatically refresh every two minutes.

Flight plan parsing failed; only flown route is shown


Map Options




Map Legend


Flown Route
Filed Route
Departure Airport
Arrival Airport
Navaid (VOR, NDB)
Fix

Horizontal Profiles

Position Reports

Time Latitude Longitude Heading Altitude Ground
Speed
01-May-18 19:29 32.733345 -117.197779 285 21ft 0kts
01-May-18 19:30 32.733345 -117.197779 285 21ft 0kts
01-May-18 19:31 32.733345 -117.197779 285 21ft 0kts
01-May-18 19:32 32.733345 -117.197779 285 21ft 0kts
01-May-18 19:33 32.733345 -117.197779 285 21ft 0kts
01-May-18 19:34 32.733345 -117.197779 285 21ft 0kts
01-May-18 19:35 32.733301 -117.197588 285 21ft 2kts
01-May-18 19:36 32.733037 -117.197263 15 21ft 0kts
01-May-18 19:37 32.733220 -117.197198 18 21ft 6kts
01-May-18 19:38 32.733726 -117.197005 17 21ft 0kts
01-May-18 19:39 32.733726 -117.197005 17 21ft 0kts
01-May-18 19:40 32.734103 -117.196656 69 22ft 10kts
01-May-18 19:41 32.732932 -117.191354 106 22ft 23kts
01-May-18 19:42 32.730745 -117.182333 106 21ft 35kts
01-May-18 19:43 32.729508 -117.176734 77 24ft 0kts
01-May-18 19:44 32.729508 -117.176734 77 24ft 0kts
01-May-18 19:45 32.730203 -117.175991 311 28ft 14kts
01-May-18 19:46 32.740393 -117.210782 304 1699ft 183kts
01-May-18 19:47 32.770973 -117.266246 305 5014ft 260kts
01-May-18 19:48 32.797594 -117.315149 306 7803ft 282kts
01-May-18 19:49 32.838685 -117.379039 308 9958ft 288kts
01-May-18 19:50 32.890173 -117.458696 309 9968ft 373kts
01-May-18 19:51 32.947132 -117.547450 308 9975ft 378kts
01-May-18 19:52 33.001539 -117.632419 309 9975ft 378kts
01-May-18 19:53 33.054351 -117.714929 309 9973ft 379kts
01-May-18 19:54 33.120894 -117.787582 320 9973ft 377kts
01-May-18 19:55 33.197640 -117.860491 337 9980ft 376kts
01-May-18 19:56 33.314884 -117.892148 346 9973ft 374kts
01-May-18 19:57 33.376397 -117.973643 277 9979ft 382kts
01-May-18 19:58 33.366912 -118.090238 264 9973ft 384kts
01-May-18 19:59 33.355835 -118.200944 264 9975ft 383kts
01-May-18 20:00 33.360403 -118.307485 280 9974ft 381kts
01-May-18 20:01 33.380967 -118.425818 301 9983ft 380kts
01-May-18 20:02 33.434225 -118.504006 311 9974ft 377kts
01-May-18 20:03 33.490763 -118.584616 311 9973ft 378kts
01-May-18 20:04 33.541452 -118.657045 310 9973ft 378kts
01-May-18 20:05 33.599759 -118.740523 310 9973ft 379kts
01-May-18 20:06 33.652847 -118.816694 311 9974ft 378kts
01-May-18 20:07 33.708751 -118.897071 311 9974ft 378kts
01-May-18 20:08 33.769134 -118.984014 312 9973ft 378kts
01-May-18 20:09 33.854795 -119.022104 356 9972ft 372kts
01-May-18 20:10 33.947567 -119.031851 355 9983ft 354kts
01-May-18 20:11 34.028021 -119.040463 355 9987ft 283kts
01-May-18 20:12 34.097049 -119.051319 338 9934ft 285kts
01-May-18 20:13 34.136086 -119.098560 297 9261ft 288kts
01-May-18 20:15 34.166814 -119.172564 298 8402ft 283kts
01-May-18 20:16 34.198144 -119.247654 298 7365ft 279kts
01-May-18 20:17 34.227368 -119.317796 298 6170ft 246kts
01-May-18 20:18 34.252658 -119.378588 298 4769ft 232kts
01-May-18 20:19 34.275586 -119.433641 299 4064ft 207kts
01-May-18 20:20 34.295964 -119.482628 299 4039ft 204kts
01-May-18 20:21 34.316585 -119.533025 297 3986ft 205kts
01-May-18 20:22 34.335924 -119.583092 297 3166ft 202kts
01-May-18 20:23 34.353864 -119.629570 298 3026ft 190kts
01-May-18 20:24 34.368902 -119.668446 296 2251ft 181kts
01-May-18 20:25 34.385303 -119.710961 297 2124ft 166kts
01-May-18 20:26 34.400684 -119.751808 297 1460ft 149kts
01-May-18 20:27 34.412425 -119.783247 298 927ft 127kts
01-May-18 20:28 34.425358 -119.812676 291 478ft 127kts
01-May-18 20:29 34.427703 -119.844742 269 22ft 49kts
01-May-18 20:30 34.426630 -119.843108 88 21ft 30kts
01-May-18 20:31 34.425060 -119.837695 133 21ft 15kts

Navigation Log

Ident Type
Flight plan parsing failed, navigation log unavailable